Terminal Aerodrome Forecast
Issued by NWS

Home | Current Version | Previous Version | Text Only | Print | Product List | Glossary On
Versions: 1 2 3 4 5 6 7 8 9 10 11 12 13 14 15 16
799
FTPA31 PHFO 071411 AAA
TAFHKO
TAF AMD
PHKO 071411Z 0714/0812 01011KT P6SM VCSH SCT025 BKN050
     FM071900 02022G30KT P6SM SCT050
     FM080600 03012G25KT P6SM SCT050
      AMD NOT SKED=

USA.gov is the U.S. government's official web portal to all federal, state and local government web resources and services.